sensor_id;sensor_type;location;lat;lon;timestamp;P1;durP1;ratioP1;P2;durP2;ratioP2
56413;SDS011;42318;48.452;19.526;2024-02-15T00:02:32;4.38;;;2.60;;
56413;SDS011;42318;48.452;19.526;2024-02-15T00:05:33;3.97;;;2.28;;
56413;SDS011;42318;48.452;19.526;2024-02-15T00:08:36;3.88;;;2.15;;
56413;SDS011;42318;48.452;19.526;2024-02-15T00:11:37;3.08;;;2.15;;
56413;SDS011;42318;48.452;19.526;2024-02-15T00:14:39;4.03;;;2.25;;
56413;SDS011;42318;48.452;19.526;2024-02-15T00:17:40;2.75;;;2.05;;
56413;SDS011;42318;48.452;19.526;2024-02-15T00:20:40;3.22;;;2.00;;
56413;SDS011;42318;48.452;19.526;2024-02-15T00:23:41;4.03;;;2.38;;
56413;SDS011;42318;48.452;19.526;2024-02-15T00:26:42;2.97;;;2.10;;
56413;SDS011;42318;48.452;19.526;2024-02-15T00:29:43;3.50;;;2.40;;
56413;SDS011;42318;48.452;19.526;2024-02-15T00:32:44;2.85;;;2.10;;
56413;SDS011;42318;48.452;19.526;2024-02-15T00:35:46;3.63;;;2.40;;
56413;SDS011;42318;48.452;19.526;2024-02-15T00:38:47;3.22;;;2.08;;
56413;SDS011;42318;48.452;19.526;2024-02-15T00:41:48;4.82;;;2.42;;
56413;SDS011;42318;48.452;19.526;2024-02-15T00:44:48;4.22;;;2.30;;
56413;SDS011;42318;48.452;19.526;2024-02-15T00:47:49;3.22;;;2.28;;
56413;SDS011;42318;48.452;19.526;2024-02-15T00:50:50;3.05;;;2.22;;
56413;SDS011;42318;48.452;19.526;2024-02-15T00:53:51;3.40;;;2.22;;
56413;SDS011;42318;48.452;19.526;2024-02-15T00:56:51;4.43;;;2.15;;
56413;SDS011;42318;48.452;19.526;2024-02-15T00:59:52;3.90;;;1.85;;
56413;SDS011;42318;48.452;19.526;2024-02-15T01:02:53;3.08;;;2.35;;
56413;SDS011;42318;48.452;19.526;2024-02-15T01:05:53;4.63;;;2.30;;
56413;SDS011;42318;48.452;19.526;2024-02-15T01:08:54;4.30;;;2.05;;
56413;SDS011;42318;48.452;19.526;2024-02-15T01:11:55;3.53;;;2.42;;
56413;SDS011;42318;48.452;19.526;2024-02-15T01:14:55;2.42;;;2.00;;
56413;SDS011;42318;48.452;19.526;2024-02-15T01:17:56;4.57;;;2.17;;
56413;SDS011;42318;48.452;19.526;2024-02-15T01:20:57;4.53;;;2.25;;
56413;SDS011;42318;48.452;19.526;2024-02-15T01:23:59;2.90;;;2.00;;
56413;SDS011;42318;48.452;19.526;2024-02-15T01:27:00;2.70;;;2.05;;
56413;SDS011;42318;48.452;19.526;2024-02-15T01:30:02;3.40;;;2.00;;
56413;SDS011;42318;48.452;19.526;2024-02-15T01:33:04;3.65;;;2.25;;
56413;SDS011;42318;48.452;19.526;2024-02-15T01:36:05;2.75;;;2.22;;
56413;SDS011;42318;48.452;19.526;2024-02-15T01:39:06;4.35;;;2.40;;
56413;SDS011;42318;48.452;19.526;2024-02-15T01:42:07;3.75;;;1.95;;
56413;SDS011;42318;48.452;19.526;2024-02-15T01:45:08;2.70;;;2.00;;
56413;SDS011;42318;48.452;19.526;2024-02-15T01:48:12;2.57;;;2.10;;
56413;SDS011;42318;48.452;19.526;2024-02-15T01:51:14;3.70;;;2.45;;
56413;SDS011;42318;48.452;19.526;2024-02-15T01:54:16;2.72;;;1.83;;
56413;SDS011;42318;48.452;19.526;2024-02-15T01:57:17;3.15;;;2.22;;
56413;SDS011;42318;48.452;19.526;2024-02-15T02:00:21;2.13;;;1.92;;
56413;SDS011;42318;48.452;19.526;2024-02-15T02:03:22;2.60;;;2.10;;
56413;SDS011;42318;48.452;19.526;2024-02-15T02:06:23;2.95;;;2.13;;
56413;SDS011;42318;48.452;19.526;2024-02-15T02:09:24;3.03;;;2.15;;
56413;SDS011;42318;48.452;19.526;2024-02-15T02:12:25;3.38;;;2.30;;
56413;SDS011;42318;48.452;19.526;2024-02-15T02:15:27;2.80;;;2.10;;
56413;SDS011;42318;48.452;19.526;2024-02-15T02:18:29;2.28;;;2.00;;
56413;SDS011;42318;48.452;19.526;2024-02-15T02:21:30;3.53;;;2.40;;
56413;SDS011;42318;48.452;19.526;2024-02-15T02:24:32;2.38;;;2.15;;
56413;SDS011;42318;48.452;19.526;2024-02-15T02:27:37;4.32;;;2.25;;
56413;SDS011;42318;48.452;19.526;2024-02-15T02:30:38;3.38;;;2.03;;
56413;SDS011;42318;48.452;19.526;2024-02-15T02:33:41;2.67;;;1.97;;
56413;SDS011;42318;48.452;19.526;2024-02-15T02:36:47;3.75;;;2.55;;
56413;SDS011;42318;48.452;19.526;2024-02-15T02:39:48;4.40;;;2.50;;
56413;SDS011;42318;48.452;19.526;2024-02-15T02:42:55;3.63;;;2.22;;
56413;SDS011;42318;48.452;19.526;2024-02-15T02:45:59;3.78;;;2.40;;
56413;SDS011;42318;48.452;19.526;2024-02-15T02:48:59;3.20;;;2.03;;
56413;SDS011;42318;48.452;19.526;2024-02-15T02:52:00;2.88;;;1.95;;
56413;SDS011;42318;48.452;19.526;2024-02-15T02:55:01;2.63;;;2.17;;
56413;SDS011;42318;48.452;19.526;2024-02-15T02:58:01;2.38;;;1.80;;
56413;SDS011;42318;48.452;19.526;2024-02-15T03:01:02;2.85;;;2.38;;
56413;SDS011;42318;48.452;19.526;2024-02-15T03:04:03;3.15;;;2.30;;
56413;SDS011;42318;48.452;19.526;2024-02-15T03:07:04;2.60;;;2.10;;
56413;SDS011;42318;48.452;19.526;2024-02-15T03:10:05;2.95;;;2.03;;
56413;SDS011;42318;48.452;19.526;2024-02-15T03:13:09;4.55;;;2.00;;
56413;SDS011;42318;48.452;19.526;2024-02-15T03:16:09;3.15;;;2.05;;
56413;SDS011;42318;48.452;19.526;2024-02-15T03:19:10;3.28;;;2.00;;
56413;SDS011;42318;48.452;19.526;2024-02-15T03:22:12;3.85;;;1.95;;
56413;SDS011;42318;48.452;19.526;2024-02-15T03:25:14;3.88;;;2.13;;
56413;SDS011;42318;48.452;19.526;2024-02-15T03:28:14;2.92;;;2.30;;
56413;SDS011;42318;48.452;19.526;2024-02-15T03:31:15;3.22;;;2.10;;
56413;SDS011;42318;48.452;19.526;2024-02-15T03:34:17;2.67;;;2.00;;
56413;SDS011;42318;48.452;19.526;2024-02-15T03:37:21;3.20;;;2.00;;
56413;SDS011;42318;48.452;19.526;2024-02-15T03:40:22;3.90;;;2.15;;
56413;SDS011;42318;48.452;19.526;2024-02-15T03:43:23;3.03;;;2.20;;
56413;SDS011;42318;48.452;19.526;2024-02-15T03:46:23;2.95;;;2.17;;
56413;SDS011;42318;48.452;19.526;2024-02-15T03:49:24;3.47;;;2.03;;
56413;SDS011;42318;48.452;19.526;2024-02-15T03:52:25;3.70;;;2.20;;
56413;SDS011;42318;48.452;19.526;2024-02-15T03:55:25;2.30;;;1.90;;
56413;SDS011;42318;48.452;19.526;2024-02-15T03:58:26;2.65;;;2.20;;
56413;SDS011;42318;48.452;19.526;2024-02-15T04:01:26;3.78;;;2.00;;
56413;SDS011;42318;48.452;19.526;2024-02-15T04:04:27;3.17;;;2.38;;
56413;SDS011;42318;48.452;19.526;2024-02-15T04:07:30;2.92;;;2.10;;
56413;SDS011;42318;48.452;19.526;2024-02-15T04:10:31;3.05;;;2.15;;
56413;SDS011;42318;48.452;19.526;2024-02-15T04:13:32;3.88;;;2.10;;
56413;SDS011;42318;48.452;19.526;2024-02-15T04:16:32;2.42;;;1.95;;
56413;SDS011;42318;48.452;19.526;2024-02-15T04:19:33;2.90;;;2.00;;
56413;SDS011;42318;48.452;19.526;2024-02-15T04:22:34;3.53;;;2.10;;
56413;SDS011;42318;48.452;19.526;2024-02-15T04:25:37;3.92;;;2.20;;
56413;SDS011;42318;48.452;19.526;2024-02-15T04:28:39;3.40;;;2.20;;
56413;SDS011;42318;48.452;19.526;2024-02-15T04:31:41;2.65;;;2.03;;
56413;SDS011;42318;48.452;19.526;2024-02-15T04:34:43;3.05;;;2.10;;
56413;SDS011;42318;48.452;19.526;2024-02-15T04:37:46;3.17;;;2.15;;
56413;SDS011;42318;48.452;19.526;2024-02-15T04:40:47;3.42;;;2.58;;
56413;SDS011;42318;48.452;19.526;2024-02-15T04:43:51;3.92;;;2.00;;
56413;SDS011;42318;48.452;19.526;2024-02-15T04:46:55;3.05;;;2.00;;
56413;SDS011;42318;48.452;19.526;2024-02-15T04:49:56;2.80;;;2.15;;
56413;SDS011;42318;48.452;19.526;2024-02-15T04:52:56;2.72;;;1.88;;
56413;SDS011;42318;48.452;19.526;2024-02-15T04:55:57;2.78;;;1.88;;
56413;SDS011;42318;48.452;19.526;2024-02-15T04:59:01;3.47;;;2.20;;
56413;SDS011;42318;48.452;19.526;2024-02-15T05:02:02;3.33;;;2.38;;
56413;SDS011;42318;48.452;19.526;2024-02-15T05:05:03;2.78;;;2.17;;
56413;SDS011;42318;48.452;19.526;2024-02-15T05:08:04;3.17;;;2.10;;
56413;SDS011;42318;48.452;19.526;2024-02-15T05:11:05;3.25;;;2.30;;
56413;SDS011;42318;48.452;19.526;2024-02-15T05:14:13;2.45;;;2.13;;
56413;SDS011;42318;48.452;19.526;2024-02-15T05:17:19;3.58;;;2.35;;
56413;SDS011;42318;48.452;19.526;2024-02-15T05:20:20;2.70;;;2.20;;
56413;SDS011;42318;48.452;19.526;2024-02-15T05:23:21;3.13;;;2.22;;
56413;SDS011;42318;48.452;19.526;2024-02-15T05:26:22;3.00;;;2.03;;
56413;SDS011;42318;48.452;19.526;2024-02-15T05:29:23;3.22;;;2.30;;
56413;SDS011;42318;48.452;19.526;2024-02-15T05:32:24;2.50;;;2.28;;
56413;SDS011;42318;48.452;19.526;2024-02-15T05:35:26;3.70;;;2.28;;
56413;SDS011;42318;48.452;19.526;2024-02-15T05:38:28;2.63;;;2.10;;
56413;SDS011;42318;48.452;19.526;2024-02-15T05:41:28;2.45;;;2.00;;
56413;SDS011;42318;48.452;19.526;2024-02-15T05:44:30;3.35;;;2.17;;
56413;SDS011;42318;48.452;19.526;2024-02-15T05:47:30;2.88;;;2.05;;
56413;SDS011;42318;48.452;19.526;2024-02-15T05:50:31;3.60;;;2.33;;
56413;SDS011;42318;48.452;19.526;2024-02-15T05:53:31;3.63;;;2.40;;
56413;SDS011;42318;48.452;19.526;2024-02-15T05:59:36;2.70;;;1.90;;
56413;SDS011;42318;48.452;19.526;2024-02-15T06:02:37;3.20;;;2.13;;
56413;SDS011;42318;48.452;19.526;2024-02-15T06:05:38;2.70;;;1.88;;
56413;SDS011;42318;48.452;19.526;2024-02-15T06:08:39;3.10;;;2.00;;
56413;SDS011;42318;48.452;19.526;2024-02-15T06:11:40;2.75;;;2.20;;
56413;SDS011;42318;48.452;19.526;2024-02-15T06:14:41;3.78;;;2.03;;
56413;SDS011;42318;48.452;19.526;2024-02-15T06:17:41;3.00;;;2.25;;
56413;SDS011;42318;48.452;19.526;2024-02-15T06:20:45;4.72;;;2.60;;
56413;SDS011;42318;48.452;19.526;2024-02-15T06:23:49;3.55;;;2.25;;
56413;SDS011;42318;48.452;19.526;2024-02-15T06:26:51;3.45;;;2.38;;
56413;SDS011;42318;48.452;19.526;2024-02-15T06:29:54;2.88;;;2.13;;
56413;SDS011;42318;48.452;19.526;2024-02-15T06:33:13;2.30;;;1.90;;
56413;SDS011;42318;48.452;19.526;2024-02-15T06:36:32;3.25;;;2.30;;
56413;SDS011;42318;48.452;19.526;2024-02-15T06:39:51;2.63;;;2.13;;
56413;SDS011;42318;48.452;19.526;2024-02-15T06:42:53;2.53;;;2.05;;
56413;SDS011;42318;48.452;19.526;2024-02-15T06:45:53;4.60;;;2.50;;
56413;SDS011;42318;48.452;19.526;2024-02-15T06:48:55;2.55;;;2.15;;
56413;SDS011;42318;48.452;19.526;2024-02-15T06:51:58;4.78;;;2.20;;
56413;SDS011;42318;48.452;19.526;2024-02-15T06:55:02;2.25;;;2.05;;
56413;SDS011;42318;48.452;19.526;2024-02-15T06:58:03;2.83;;;2.17;;
56413;SDS011;42318;48.452;19.526;2024-02-15T07:01:06;3.13;;;2.22;;
56413;SDS011;42318;48.452;19.526;2024-02-15T07:04:06;3.83;;;2.10;;
56413;SDS011;42318;48.452;19.526;2024-02-15T07:07:08;3.15;;;2.40;;
56413;SDS011;42318;48.452;19.526;2024-02-15T07:10:09;2.50;;;2.00;;
56413;SDS011;42318;48.452;19.526;2024-02-15T07:13:10;2.72;;;1.90;;
56413;SDS011;42318;48.452;19.526;2024-02-15T07:16:11;2.78;;;2.47;;
56413;SDS011;42318;48.452;19.526;2024-02-15T07:19:12;2.58;;;2.28;;
56413;SDS011;42318;48.452;19.526;2024-02-15T07:22:16;3.42;;;2.20;;
56413;SDS011;42318;48.452;19.526;2024-02-15T07:25:16;2.90;;;2.25;;
56413;SDS011;42318;48.452;19.526;2024-02-15T07:28:19;3.35;;;2.35;;
56413;SDS011;42318;48.452;19.526;2024-02-15T07:31:21;2.60;;;2.38;;
56413;SDS011;42318;48.452;19.526;2024-02-15T07:34:22;3.65;;;2.53;;
56413;SDS011;42318;48.452;19.526;2024-02-15T07:37:22;3.28;;;2.60;;
56413;SDS011;42318;48.452;19.526;2024-02-15T07:40:29;3.80;;;2.75;;
56413;SDS011;42318;48.452;19.526;2024-02-15T07:43:29;4.22;;;2.42;;
56413;SDS011;42318;48.452;19.526;2024-02-15T07:46:30;3.60;;;2.60;;
56413;SDS011;42318;48.452;19.526;2024-02-15T07:49:30;3.78;;;2.70;;
56413;SDS011;42318;48.452;19.526;2024-02-15T07:52:31;3.30;;;2.80;;
56413;SDS011;42318;48.452;19.526;2024-02-15T07:55:33;4.05;;;2.90;;
56413;SDS011;42318;48.452;19.526;2024-02-15T07:58:34;2.85;;;2.42;;
56413;SDS011;42318;48.452;19.526;2024-02-15T08:01:35;6.75;;;2.67;;
56413;SDS011;42318;48.452;19.526;2024-02-15T08:04:36;4.20;;;3.00;;
56413;SDS011;42318;48.452;19.526;2024-02-15T08:07:41;4.95;;;3.90;;
56413;SDS011;42318;48.452;19.526;2024-02-15T08:10:42;8.27;;;4.22;;
56413;SDS011;42318;48.452;19.526;2024-02-15T08:13:47;7.65;;;3.90;;
56413;SDS011;42318;48.452;19.526;2024-02-15T08:16:54;10.35;;;5.20;;
56413;SDS011;42318;48.452;19.526;2024-02-15T08:19:56;14.20;;;5.85;;
56413;SDS011;42318;48.452;19.526;2024-02-15T08:22:57;15.88;;;6.28;;
56413;SDS011;42318;48.452;19.526;2024-02-15T08:25:59;12.98;;;5.80;;
56413;SDS011;42318;48.452;19.526;2024-02-15T08:29:00;16.50;;;6.70;;
56413;SDS011;42318;48.452;19.526;2024-02-15T08:32:00;15.40;;;6.95;;
56413;SDS011;42318;48.452;19.526;2024-02-15T08:35:01;17.52;;;7.45;;
56413;SDS011;42318;48.452;19.526;2024-02-15T08:38:01;18.52;;;8.65;;
56413;SDS011;42318;48.452;19.526;2024-02-15T08:41:05;20.20;;;9.65;;
56413;SDS011;42318;48.452;19.526;2024-02-15T08:44:07;22.58;;;10.45;;
56413;SDS011;42318;48.452;19.526;2024-02-15T08:50:12;17.85;;;8.88;;
56413;SDS011;42318;48.452;19.526;2024-02-15T08:53:13;19.92;;;8.90;;
56413;SDS011;42318;48.452;19.526;2024-02-15T08:56:15;19.88;;;8.25;;
56413;SDS011;42318;48.452;19.526;2024-02-15T08:59:16;18.42;;;8.70;;
56413;SDS011;42318;48.452;19.526;2024-02-15T09:02:17;19.52;;;8.77;;
56413;SDS011;42318;48.452;19.526;2024-02-15T09:05:18;19.13;;;8.25;;
56413;SDS011;42318;48.452;19.526;2024-02-15T09:08:22;20.25;;;8.35;;
56413;SDS011;42318;48.452;19.526;2024-02-15T09:11:27;23.60;;;8.80;;
56413;SDS011;42318;48.452;19.526;2024-02-15T09:14:29;16.50;;;8.05;;
56413;SDS011;42318;48.452;19.526;2024-02-15T09:17:30;22.70;;;7.80;;
56413;SDS011;42318;48.452;19.526;2024-02-15T09:20:32;16.27;;;8.02;;
56413;SDS011;42318;48.452;19.526;2024-02-15T09:23:33;20.05;;;7.78;;
56413;SDS011;42318;48.452;19.526;2024-02-15T09:26:34;17.38;;;7.30;;
56413;SDS011;42318;48.452;19.526;2024-02-15T09:29:34;20.90;;;7.70;;
56413;SDS011;42318;48.452;19.526;2024-02-15T09:32:38;18.00;;;7.70;;
56413;SDS011;42318;48.452;19.526;2024-02-15T09:35:39;12.68;;;7.00;;
56413;SDS011;42318;48.452;19.526;2024-02-15T09:38:40;18.75;;;7.38;;
56413;SDS011;42318;48.452;19.526;2024-02-15T09:41:41;17.73;;;7.57;;
56413;SDS011;42318;48.452;19.526;2024-02-15T09:44:43;14.98;;;7.00;;
56413;SDS011;42318;48.452;19.526;2024-02-15T09:47:45;14.77;;;8.13;;
56413;SDS011;42318;48.452;19.526;2024-02-15T09:50:45;19.58;;;7.35;;
56413;SDS011;42318;48.452;19.526;2024-02-15T09:53:47;13.98;;;7.13;;
56413;SDS011;42318;48.452;19.526;2024-02-15T09:56:49;12.27;;;7.25;;
56413;SDS011;42318;48.452;19.526;2024-02-15T09:59:51;13.53;;;6.97;;
56413;SDS011;42318;48.452;19.526;2024-02-15T10:02:54;18.35;;;7.13;;
56413;SDS011;42318;48.452;19.526;2024-02-15T10:05:58;17.50;;;7.78;;
56413;SDS011;42318;48.452;19.526;2024-02-15T10:12:36;13.30;;;7.07;;
56413;SDS011;42318;48.452;19.526;2024-02-15T10:15:38;17.60;;;7.25;;
56413;SDS011;42318;48.452;19.526;2024-02-15T10:18:41;16.50;;;7.18;;
56413;SDS011;42318;48.452;19.526;2024-02-15T10:21:41;16.80;;;6.35;;
56413;SDS011;42318;48.452;19.526;2024-02-15T10:24:42;10.90;;;6.13;;
56413;SDS011;42318;48.452;19.526;2024-02-15T10:27:44;13.35;;;6.60;;
56413;SDS011;42318;48.452;19.526;2024-02-15T10:30:45;11.48;;;6.30;;
56413;SDS011;42318;48.452;19.526;2024-02-15T10:33:48;15.30;;;5.60;;
56413;SDS011;42318;48.452;19.526;2024-02-15T10:36:49;16.30;;;6.28;;
56413;SDS011;42318;48.452;19.526;2024-02-15T10:40:03;17.85;;;6.50;;
56413;SDS011;42318;48.452;19.526;2024-02-15T10:43:08;10.45;;;5.90;;
56413;SDS011;42318;48.452;19.526;2024-02-15T10:46:10;12.73;;;5.97;;
56413;SDS011;42318;48.452;19.526;2024-02-15T10:49:13;13.48;;;6.07;;
56413;SDS011;42318;48.452;19.526;2024-02-15T10:52:15;12.50;;;5.93;;
56413;SDS011;42318;48.452;19.526;2024-02-15T10:55:19;13.18;;;7.47;;
56413;SDS011;42318;48.452;19.526;2024-02-15T10:58:30;39.67;;;20.17;;
56413;SDS011;42318;48.452;19.526;2024-02-15T11:01:35;43.95;;;19.38;;
56413;SDS011;42318;48.452;19.526;2024-02-15T11:04:39;34.85;;;17.92;;
56413;SDS011;42318;48.452;19.526;2024-02-15T11:07:44;40.70;;;18.48;;
56413;SDS011;42318;48.452;19.526;2024-02-15T11:10:45;35.92;;;16.92;;
56413;SDS011;42318;48.452;19.526;2024-02-15T11:13:48;35.05;;;16.77;;
56413;SDS011;42318;48.452;19.526;2024-02-15T11:16:49;30.48;;;15.65;;
56413;SDS011;42318;48.452;19.526;2024-02-15T11:19:51;29.05;;;15.13;;
56413;SDS011;42318;48.452;19.526;2024-02-15T11:22:55;32.53;;;15.15;;
56413;SDS011;42318;48.452;19.526;2024-02-15T11:25:57;31.48;;;15.45;;
56413;SDS011;42318;48.452;19.526;2024-02-15T11:29:00;28.40;;;14.45;;
56413;SDS011;42318;48.452;19.526;2024-02-15T11:32:01;28.95;;;14.23;;
56413;SDS011;42318;48.452;19.526;2024-02-15T11:35:04;24.58;;;14.40;;
56413;SDS011;42318;48.452;19.526;2024-02-15T11:38:11;27.13;;;13.68;;
56413;SDS011;42318;48.452;19.526;2024-02-15T11:41:28;26.55;;;13.52;;
56413;SDS011;42318;48.452;19.526;2024-02-15T11:44:29;26.58;;;13.13;;
56413;SDS011;42318;48.452;19.526;2024-02-15T11:47:32;23.70;;;12.25;;
56413;SDS011;42318;48.452;19.526;2024-02-15T11:50:35;25.27;;;13.07;;
56413;SDS011;42318;48.452;19.526;2024-02-15T11:53:37;24.88;;;12.70;;
56413;SDS011;42318;48.452;19.526;2024-02-15T11:59:44;25.85;;;12.38;;
56413;SDS011;42318;48.452;19.526;2024-02-15T12:03:05;22.08;;;11.43;;
56413;SDS011;42318;48.452;19.526;2024-02-15T12:06:25;20.50;;;11.70;;
56413;SDS011;42318;48.452;19.526;2024-02-15T12:09:44;20.48;;;10.35;;
56413;SDS011;42318;48.452;19.526;2024-02-15T12:13:04;23.30;;;11.10;;
56413;SDS011;42318;48.452;19.526;2024-02-15T12:16:23;21.80;;;11.32;;
56413;SDS011;42318;48.452;19.526;2024-02-15T12:19:42;23.38;;;10.93;;
56413;SDS011;42318;48.452;19.526;2024-02-15T12:22:44;18.95;;;10.57;;
56413;SDS011;42318;48.452;19.526;2024-02-15T12:25:53;22.40;;;10.57;;
56413;SDS011;42318;48.452;19.526;2024-02-15T12:28:54;16.52;;;10.02;;
56413;SDS011;42318;48.452;19.526;2024-02-15T12:35:12;19.95;;;10.05;;
56413;SDS011;42318;48.452;19.526;2024-02-15T12:38:17;17.33;;;9.30;;
56413;SDS011;42318;48.452;19.526;2024-02-15T12:41:19;17.40;;;9.27;;
56413;SDS011;42318;48.452;19.526;2024-02-15T12:44:20;19.83;;;9.82;;
56413;SDS011;42318;48.452;19.526;2024-02-15T12:47:21;19.05;;;9.48;;
56413;SDS011;42318;48.452;19.526;2024-02-15T12:50:23;16.90;;;9.48;;
56413;SDS011;42318;48.452;19.526;2024-02-15T12:53:28;17.35;;;10.07;;
56413;SDS011;42318;48.452;19.526;2024-02-15T12:56:29;18.08;;;8.98;;
56413;SDS011;42318;48.452;19.526;2024-02-15T12:59:30;20.58;;;9.23;;
56413;SDS011;42318;48.452;19.526;2024-02-15T13:02:31;17.55;;;9.27;;
56413;SDS011;42318;48.452;19.526;2024-02-15T13:05:32;16.92;;;9.20;;
56413;SDS011;42318;48.452;19.526;2024-02-15T13:08:33;17.35;;;8.85;;
56413;SDS011;42318;48.452;19.526;2024-02-15T13:11:35;18.55;;;8.80;;
56413;SDS011;42318;48.452;19.526;2024-02-15T13:14:35;14.63;;;8.63;;
56413;SDS011;42318;48.452;19.526;2024-02-15T13:17:36;17.08;;;8.70;;
56413;SDS011;42318;48.452;19.526;2024-02-15T13:20:38;17.48;;;9.00;;
56413;SDS011;42318;48.452;19.526;2024-02-15T13:23:38;14.15;;;8.85;;
56413;SDS011;42318;48.452;19.526;2024-02-15T13:26:39;16.85;;;8.52;;
56413;SDS011;42318;48.452;19.526;2024-02-15T13:29:40;14.88;;;8.60;;
56413;SDS011;42318;48.452;19.526;2024-02-15T13:32:41;18.08;;;8.13;;
56413;SDS011;42318;48.452;19.526;2024-02-15T13:35:42;14.80;;;8.27;;
56413;SDS011;42318;48.452;19.526;2024-02-15T13:38:43;15.10;;;8.88;;
56413;SDS011;42318;48.452;19.526;2024-02-15T13:41:43;14.90;;;8.13;;
56413;SDS011;42318;48.452;19.526;2024-02-15T13:44:44;13.38;;;7.97;;
56413;SDS011;42318;48.452;19.526;2024-02-15T13:47:46;18.67;;;8.20;;
56413;SDS011;42318;48.452;19.526;2024-02-15T13:50:53;16.33;;;8.32;;
56413;SDS011;42318;48.452;19.526;2024-02-15T13:53:54;13.73;;;7.45;;
56413;SDS011;42318;48.452;19.526;2024-02-15T13:56:56;16.15;;;8.52;;
56413;SDS011;42318;48.452;19.526;2024-02-15T13:59:57;14.35;;;7.78;;
56413;SDS011;42318;48.452;19.526;2024-02-15T14:02:58;16.55;;;8.35;;
56413;SDS011;42318;48.452;19.526;2024-02-15T14:06:00;16.55;;;7.82;;
56413;SDS011;42318;48.452;19.526;2024-02-15T14:09:01;14.95;;;7.88;;
56413;SDS011;42318;48.452;19.526;2024-02-15T14:12:02;15.15;;;7.63;;
56413;SDS011;42318;48.452;19.526;2024-02-15T14:15:06;13.88;;;8.45;;
56413;SDS011;42318;48.452;19.526;2024-02-15T14:18:07;13.75;;;7.55;;
56413;SDS011;42318;48.452;19.526;2024-02-15T14:21:19;11.50;;;7.00;;
56413;SDS011;42318;48.452;19.526;2024-02-15T14:24:20;13.50;;;6.85;;
56413;SDS011;42318;48.452;19.526;2024-02-15T14:27:23;11.52;;;6.97;;
56413;SDS011;42318;48.452;19.526;2024-02-15T14:30:24;12.93;;;7.20;;
56413;SDS011;42318;48.452;19.526;2024-02-15T14:33:44;11.63;;;7.18;;
56413;SDS011;42318;48.452;19.526;2024-02-15T14:36:45;11.88;;;7.13;;
56413;SDS011;42318;48.452;19.526;2024-02-15T14:39:47;12.70;;;7.13;;
56413;SDS011;42318;48.452;19.526;2024-02-15T14:42:48;12.88;;;7.25;;
56413;SDS011;42318;48.452;19.526;2024-02-15T14:45:49;11.68;;;6.65;;
56413;SDS011;42318;48.452;19.526;2024-02-15T14:48:49;11.45;;;7.35;;
56413;SDS011;42318;48.452;19.526;2024-02-15T14:51:50;11.85;;;6.55;;
56413;SDS011;42318;48.452;19.526;2024-02-15T14:54:51;11.80;;;6.35;;
56413;SDS011;42318;48.452;19.526;2024-02-15T14:57:52;15.40;;;7.07;;
56413;SDS011;42318;48.452;19.526;2024-02-15T15:00:53;10.77;;;6.00;;
56413;SDS011;42318;48.452;19.526;2024-02-15T15:03:54;12.00;;;6.78;;
56413;SDS011;42318;48.452;19.526;2024-02-15T15:06:56;10.00;;;6.32;;
56413;SDS011;42318;48.452;19.526;2024-02-15T15:10:15;13.13;;;6.78;;
56413;SDS011;42318;48.452;19.526;2024-02-15T15:13:34;9.88;;;5.95;;
56413;SDS011;42318;48.452;19.526;2024-02-15T15:16:35;12.73;;;6.57;;
56413;SDS011;42318;48.452;19.526;2024-02-15T15:19:36;12.10;;;7.15;;
56413;SDS011;42318;48.452;19.526;2024-02-15T15:22:37;12.20;;;6.65;;
56413;SDS011;42318;48.452;19.526;2024-02-15T15:25:40;11.85;;;6.70;;
56413;SDS011;42318;48.452;19.526;2024-02-15T15:28:41;12.77;;;6.93;;
56413;SDS011;42318;48.452;19.526;2024-02-15T15:31:43;10.88;;;6.63;;
56413;SDS011;42318;48.452;19.526;2024-02-15T15:34:43;12.40;;;7.13;;
56413;SDS011;42318;48.452;19.526;2024-02-15T15:37:44;9.52;;;6.45;;
56413;SDS011;42318;48.452;19.526;2024-02-15T15:40:46;8.57;;;6.30;;
56413;SDS011;42318;48.452;19.526;2024-02-15T15:43:46;10.23;;;5.95;;
56413;SDS011;42318;48.452;19.526;2024-02-15T15:46:47;9.48;;;6.57;;
56413;SDS011;42318;48.452;19.526;2024-02-15T15:49:48;10.18;;;6.50;;
56413;SDS011;42318;48.452;19.526;2024-02-15T15:52:49;8.77;;;6.45;;
56413;SDS011;42318;48.452;19.526;2024-02-15T15:55:49;10.23;;;6.00;;
56413;SDS011;42318;48.452;19.526;2024-02-15T15:58:50;8.80;;;6.30;;
56413;SDS011;42318;48.452;19.526;2024-02-15T16:01:50;9.27;;;6.30;;
56413;SDS011;42318;48.452;19.526;2024-02-15T16:04:51;9.90;;;5.90;;
56413;SDS011;42318;48.452;19.526;2024-02-15T16:07:55;11.40;;;6.78;;
56413;SDS011;42318;48.452;19.526;2024-02-15T16:10:55;9.38;;;6.10;;
56413;SDS011;42318;48.452;19.526;2024-02-15T16:13:57;9.77;;;6.05;;
56413;SDS011;42318;48.452;19.526;2024-02-15T16:16:57;9.18;;;6.30;;
56413;SDS011;42318;48.452;19.526;2024-02-15T16:20:00;8.23;;;6.25;;
56413;SDS011;42318;48.452;19.526;2024-02-15T16:23:11;11.80;;;6.20;;
56413;SDS011;42318;48.452;19.526;2024-02-15T16:26:11;10.32;;;6.47;;
56413;SDS011;42318;48.452;19.526;2024-02-15T16:29:12;9.10;;;6.25;;
56413;SDS011;42318;48.452;19.526;2024-02-15T16:32:12;9.57;;;5.95;;
56413;SDS011;42318;48.452;19.526;2024-02-15T16:35:13;11.27;;;6.35;;
56413;SDS011;42318;48.452;19.526;2024-02-15T16:38:15;8.05;;;6.07;;
56413;SDS011;42318;48.452;19.526;2024-02-15T16:41:17;14.32;;;6.47;;
56413;SDS011;42318;48.452;19.526;2024-02-15T16:44:18;8.20;;;6.05;;
56413;SDS011;42318;48.452;19.526;2024-02-15T16:47:19;9.05;;;6.05;;
56413;SDS011;42318;48.452;19.526;2024-02-15T16:50:21;10.68;;;6.47;;
56413;SDS011;42318;48.452;19.526;2024-02-15T16:53:25;8.55;;;6.20;;
56413;SDS011;42318;48.452;19.526;2024-02-15T16:56:26;11.07;;;6.40;;
56413;SDS011;42318;48.452;19.526;2024-02-15T16:59:26;10.23;;;5.43;;
56413;SDS011;42318;48.452;19.526;2024-02-15T17:02:27;8.88;;;6.40;;
56413;SDS011;42318;48.452;19.526;2024-02-15T17:05:28;9.25;;;6.38;;
56413;SDS011;42318;48.452;19.526;2024-02-15T17:08:29;8.77;;;6.00;;
56413;SDS011;42318;48.452;19.526;2024-02-15T17:11:30;8.75;;;6.13;;
56413;SDS011;42318;48.452;19.526;2024-02-15T17:14:30;7.82;;;5.70;;
56413;SDS011;42318;48.452;19.526;2024-02-15T17:17:31;9.43;;;5.78;;
56413;SDS011;42318;48.452;19.526;2024-02-15T17:20:32;7.22;;;5.70;;
56413;SDS011;42318;48.452;19.526;2024-02-15T17:23:33;9.43;;;6.30;;
56413;SDS011;42318;48.452;19.526;2024-02-15T17:26:33;9.15;;;5.45;;
56413;SDS011;42318;48.452;19.526;2024-02-15T17:29:34;7.55;;;5.93;;
56413;SDS011;42318;48.452;19.526;2024-02-15T17:32:35;8.00;;;5.63;;
56413;SDS011;42318;48.452;19.526;2024-02-15T17:35:37;8.25;;;5.35;;
56413;SDS011;42318;48.452;19.526;2024-02-15T17:38:37;8.90;;;5.53;;
56413;SDS011;42318;48.452;19.526;2024-02-15T17:41:38;9.35;;;5.55;;
56413;SDS011;42318;48.452;19.526;2024-02-15T17:44:39;6.55;;;5.40;;
56413;SDS011;42318;48.452;19.526;2024-02-15T17:47:41;8.25;;;5.35;;
56413;SDS011;42318;48.452;19.526;2024-02-15T17:50:44;8.07;;;5.50;;
56413;SDS011;42318;48.452;19.526;2024-02-15T17:53:45;8.90;;;6.35;;
56413;SDS011;42318;48.452;19.526;2024-02-15T17:56:45;9.30;;;6.15;;
56413;SDS011;42318;48.452;19.526;2024-02-15T17:59:48;9.23;;;5.82;;
56413;SDS011;42318;48.452;19.526;2024-02-15T18:02:49;8.23;;;5.78;;
56413;SDS011;42318;48.452;19.526;2024-02-15T18:05:51;9.40;;;6.25;;
56413;SDS011;42318;48.452;19.526;2024-02-15T18:08:52;8.75;;;6.05;;
56413;SDS011;42318;48.452;19.526;2024-02-15T18:11:53;6.90;;;5.72;;